Terminal Aerodrome Forecast
Issued by NWS Mt. Holly, NJ

Current Version | Previous Version | Text Only | Print | Product List | Glossary On
Versions: 1 2 3 4 5 6 7 8 9 10 11 12 13 14 15 16 17 18 19 20 21 22 23 24
000
FTUS41 KPHI 180538
TAFACY
TAF
KACY 180538Z 1806/1906 VRB02KT P6SM SKC
     FM181200 19005KT P6SM SKC
     FM181500 21009KT P6SM BKN150 PROB30 1821/1901 6SM -SHRA
     FM190100 20013G23KT P6SM VCSH OVC050=

USA.gov is the U.S. government's official web portal to all federal, state and local government web resources and services.